sensor_id;sensor_type;location;lat;lon;timestamp;pressure;altitude;pressure_sealevel;temperature;humidity
71107;BME280;58763;47.982;11.516;2023-01-26T00:01:43;94455.31;;;-0.15;81.00
71107;BME280;58763;47.982;11.516;2023-01-26T00:04:09;94453.25;;;-0.13;80.51
71107;BME280;58763;47.982;11.516;2023-01-26T00:06:35;94448.41;;;-0.23;80.74
71107;BME280;58763;47.982;11.516;2023-01-26T00:09:01;94439.38;;;-0.15;80.38
71107;BME280;58763;47.982;11.516;2023-01-26T00:11:27;94440.66;;;-0.24;81.17
71107;BME280;58763;47.982;11.516;2023-01-26T00:13:56;94435.34;;;-0.24;81.37
71107;BME280;58763;47.982;11.516;2023-01-26T00:16:22;94431.50;;;-0.28;80.58
71107;BME280;58763;47.982;11.516;2023-01-26T00:18:48;94430.69;;;-0.29;80.54
71107;BME280;58763;47.982;11.516;2023-01-26T00:21:16;94435.84;;;-0.40;81.30
71107;BME280;58763;47.982;11.516;2023-01-26T00:23:42;94429.72;;;-0.41;81.48
71107;BME280;58763;47.982;11.516;2023-01-26T00:26:10;94429.28;;;-0.38;81.57
71107;BME280;58763;47.982;11.516;2023-01-26T00:28:37;94426.97;;;-0.28;81.62
71107;BME280;58763;47.982;11.516;2023-01-26T00:31:04;94420.81;;;-0.22;81.45
71107;BME280;58763;47.982;11.516;2023-01-26T00:33:31;94425.91;;;-0.20;81.06
71107;BME280;58763;47.982;11.516;2023-01-26T00:35:57;94421.50;;;-0.33;81.30
71107;BME280;58763;47.982;11.516;2023-01-26T00:38:22;94415.84;;;-0.43;81.86
71107;BME280;58763;47.982;11.516;2023-01-26T00:40:48;94423.34;;;-0.33;81.40
71107;BME280;58763;47.982;11.516;2023-01-26T00:43:14;94415.94;;;-0.25;80.84
71107;BME280;58763;47.982;11.516;2023-01-26T00:45:39;94424.72;;;-0.24;81.06
71107;BME280;58763;47.982;11.516;2023-01-26T00:48:05;94414.72;;;-0.29;81.29
71107;BME280;58763;47.982;11.516;2023-01-26T00:50:31;94415.16;;;-0.32;81.21
71107;BME280;58763;47.982;11.516;2023-01-26T00:52:57;94413.03;;;-0.23;80.24
71107;BME280;58763;47.982;11.516;2023-01-26T00:55:23;94419.44;;;-0.31;80.19
71107;BME280;58763;47.982;11.516;2023-01-26T00:57:54;94417.03;;;-0.39;80.25
71107;BME280;58763;47.982;11.516;2023-01-26T01:00:19;94413.78;;;-0.41;80.55
71107;BME280;58763;47.982;11.516;2023-01-26T01:02:46;94411.72;;;-0.39;80.53
71107;BME280;58763;47.982;11.516;2023-01-26T01:05:11;94409.28;;;-0.40;80.73
71107;BME280;58763;47.982;11.516;2023-01-26T01:07:37;94407.66;;;-0.41;80.68
71107;BME280;58763;47.982;11.516;2023-01-26T01:10:02;94413.78;;;-0.41;80.50
71107;BME280;58763;47.982;11.516;2023-01-26T01:12:28;94405.16;;;-0.36;80.27
71107;BME280;58763;47.982;11.516;2023-01-26T01:14:54;94407.66;;;-0.41;80.48
71107;BME280;58763;47.982;11.516;2023-01-26T01:17:19;94410.56;;;-0.49;80.68
71107;BME280;58763;47.982;11.516;2023-01-26T01:19:45;94418.91;;;-0.46;80.82
71107;BME280;58763;47.982;11.516;2023-01-26T01:22:11;94411.34;;;-0.42;81.27
71107;BME280;58763;47.982;11.516;2023-01-26T01:24:36;94407.78;;;-0.30;80.18
71107;BME280;58763;47.982;11.516;2023-01-26T01:27:02;94413.69;;;-0.21;80.10
71107;BME280;58763;47.982;11.516;2023-01-26T01:29:27;94400.38;;;-0.21;79.50
71107;BME280;58763;47.982;11.516;2023-01-26T01:31:53;94400.53;;;-0.16;79.24
71107;BME280;58763;47.982;11.516;2023-01-26T01:34:19;94400.59;;;-0.23;79.55
71107;BME280;58763;47.982;11.516;2023-01-26T01:36:44;94395.50;;;-0.24;79.84
71107;BME280;58763;47.982;11.516;2023-01-26T01:39:10;94406.34;;;-0.26;79.62
71107;BME280;58763;47.982;11.516;2023-01-26T01:41:36;94402.63;;;-0.25;79.82
71107;BME280;58763;47.982;11.516;2023-01-26T01:44:19;94406.28;;;-0.19;79.92
71107;BME280;58763;47.982;11.516;2023-01-26T01:47:04;94400.53;;;-0.16;78.78
71107;BME280;58763;47.982;11.516;2023-01-26T01:49:31;94406.72;;;-0.22;79.17
71107;BME280;58763;47.982;11.516;2023-01-26T01:52:10;94404.25;;;-0.17;79.17
71107;BME280;58763;47.982;11.516;2023-01-26T01:54:59;94403.50;;;-0.31;78.44
71107;BME280;58763;47.982;11.516;2023-01-26T01:57:32;94405.94;;;-0.29;78.95
71107;BME280;58763;47.982;11.516;2023-01-26T02:00:12;94400.25;;;-0.33;78.81
71107;BME280;58763;47.982;11.516;2023-01-26T02:02:40;94399.97;;;-0.25;78.71
71107;BME280;58763;47.982;11.516;2023-01-26T02:05:23;94398.66;;;-0.09;77.83
71107;BME280;58763;47.982;11.516;2023-01-26T02:07:50;94401.81;;;-0.25;77.87
71107;BME280;58763;47.982;11.516;2023-01-26T02:10:18;94392.63;;;-0.60;77.33
71107;BME280;58763;47.982;11.516;2023-01-26T02:12:49;94393.44;;;-0.60;78.35
71107;BME280;58763;47.982;11.516;2023-01-26T02:15:16;94395.47;;;-0.55;77.59
71107;BME280;58763;47.982;11.516;2023-01-26T02:17:42;94387.25;;;-0.47;78.11
71107;BME280;58763;47.982;11.516;2023-01-26T02:23:00;94392.94;;;-0.44;78.58
71107;BME280;58763;47.982;11.516;2023-01-26T02:25:54;94378.25;;;-0.46;78.94
71107;BME280;58763;47.982;11.516;2023-01-26T02:28:24;94381.66;;;-0.33;78.51
71107;BME280;58763;47.982;11.516;2023-01-26T02:30:52;94382.44;;;-0.26;78.28
71107;BME280;58763;47.982;11.516;2023-01-26T02:33:19;94361.13;;;-0.19;77.99
71107;BME280;58763;47.982;11.516;2023-01-26T02:35:45;94354.34;;;-0.15;76.91
71107;BME280;58763;47.982;11.516;2023-01-26T02:38:12;94351.91;;;-0.17;77.04
71107;BME280;58763;47.982;11.516;2023-01-26T02:40:43;94349.28;;;-0.23;77.71
71107;BME280;58763;47.982;11.516;2023-01-26T02:43:11;94350.31;;;-0.24;77.24
71107;BME280;58763;47.982;11.516;2023-01-26T02:45:37;94346.34;;;-0.40;77.37
71107;BME280;58763;47.982;11.516;2023-01-26T02:48:04;94345.56;;;-0.47;77.87
71107;BME280;58763;47.982;11.516;2023-01-26T02:50:31;94345.56;;;-0.47;77.47
71107;BME280;58763;47.982;11.516;2023-01-26T02:52:57;94340.91;;;-0.51;77.78
71107;BME280;58763;47.982;11.516;2023-01-26T02:55:22;94341.09;;;-0.53;78.56
71107;BME280;58763;47.982;11.516;2023-01-26T02:57:54;94339.44;;;-0.47;78.32
71107;BME280;58763;47.982;11.516;2023-01-26T03:00:32;94329.66;;;-0.53;78.94
71107;BME280;58763;47.982;11.516;2023-01-26T03:03:15;94332.31;;;-0.47;78.78
71107;BME280;58763;47.982;11.516;2023-01-26T03:05:41;94332.06;;;-0.45;78.31
71107;BME280;58763;47.982;11.516;2023-01-26T03:08:07;94330.00;;;-0.43;78.79
71107;BME280;58763;47.982;11.516;2023-01-26T03:10:35;94329.00;;;-0.49;78.76
71107;BME280;58763;47.982;11.516;2023-01-26T03:13:01;94321.44;;;-0.45;78.68
71107;BME280;58763;47.982;11.516;2023-01-26T03:15:27;94324.16;;;-0.52;77.52
71107;BME280;58763;47.982;11.516;2023-01-26T03:18:15;94318.84;;;-0.52;77.85
71107;BME280;58763;47.982;11.516;2023-01-26T03:21:12;94316.25;;;-0.58;78.73
71107;BME280;58763;47.982;11.516;2023-01-26T03:23:57;94317.84;;;-0.57;78.36
71107;BME280;58763;47.982;11.516;2023-01-26T03:26:40;94314.19;;;-0.63;78.85
71107;BME280;58763;47.982;11.516;2023-01-26T03:29:25;94319.31;;;-0.61;78.63
71107;BME280;58763;47.982;11.516;2023-01-26T03:31:52;94319.91;;;-0.59;79.44
71107;BME280;58763;47.982;11.516;2023-01-26T03:34:17;94313.13;;;-0.55;79.21
71107;BME280;58763;47.982;11.516;2023-01-26T03:36:45;94320.44;;;-0.51;78.97
71107;BME280;58763;47.982;11.516;2023-01-26T03:39:11;94309.19;;;-0.46;78.97
71107;BME280;58763;47.982;11.516;2023-01-26T03:41:57;94308.34;;;-0.40;78.44
71107;BME280;58763;47.982;11.516;2023-01-26T03:44:41;94316.72;;;-0.43;78.48
71107;BME280;58763;47.982;11.516;2023-01-26T03:47:27;94305.88;;;-0.42;78.83
71107;BME280;58763;47.982;11.516;2023-01-26T03:50:11;94308.75;;;-0.43;78.71
71107;BME280;58763;47.982;11.516;2023-01-26T03:52:55;94307.09;;;-0.38;78.65
71107;BME280;58763;47.982;11.516;2023-01-26T03:55:40;94311.59;;;-0.38;78.81
71107;BME280;58763;47.982;11.516;2023-01-26T03:58:24;94308.94;;;-0.38;78.32
71107;BME280;58763;47.982;11.516;2023-01-26T04:00:54;94307.28;;;-0.39;78.33
71107;BME280;58763;47.982;11.516;2023-01-26T04:03:19;94297.91;;;-0.42;78.40
71107;BME280;58763;47.982;11.516;2023-01-26T04:06:03;94300.31;;;-0.34;78.05
71107;BME280;58763;47.982;11.516;2023-01-26T04:08:47;94293.59;;;-0.36;78.28
71107;BME280;58763;47.982;11.516;2023-01-26T04:11:13;94303.84;;;-0.40;78.19
71107;BME280;58763;47.982;11.516;2023-01-26T04:13:38;94306.34;;;-0.45;78.46
71107;BME280;58763;47.982;11.516;2023-01-26T04:16:23;94303.88;;;-0.46;78.14
71107;BME280;58763;47.982;11.516;2023-01-26T04:19:07;94298.13;;;-0.43;77.85
71107;BME280;58763;47.982;11.516;2023-01-26T04:21:51;94302.25;;;-0.47;78.16
71107;BME280;58763;47.982;11.516;2023-01-26T04:24:17;94292.06;;;-0.50;77.66
71107;BME280;58763;47.982;11.516;2023-01-26T04:26:46;94298.41;;;-0.51;77.88
71107;BME280;58763;47.982;11.516;2023-01-26T04:29:14;94296.56;;;-0.51;77.75
71107;BME280;58763;47.982;11.516;2023-01-26T04:31:41;94289.06;;;-0.60;77.87
71107;BME280;58763;47.982;11.516;2023-01-26T04:34:10;94285.13;;;-0.51;77.52
71107;BME280;58763;47.982;11.516;2023-01-26T04:36:37;94284.31;;;-0.52;77.42
71107;BME280;58763;47.982;11.516;2023-01-26T04:39:03;94289.69;;;-0.58;77.50
71107;BME280;58763;47.982;11.516;2023-01-26T04:41:30;94283.63;;;-0.72;77.96
71107;BME280;58763;47.982;11.516;2023-01-26T04:43:56;94286.50;;;-0.74;78.16
71107;BME280;58763;47.982;11.516;2023-01-26T04:46:22;94281.56;;;-0.70;78.10
71107;BME280;58763;47.982;11.516;2023-01-26T04:48:48;94277.00;;;-0.63;78.38
71107;BME280;58763;47.982;11.516;2023-01-26T04:51:15;94275.63;;;-0.65;78.44
71107;BME280;58763;47.982;11.516;2023-01-26T04:53:42;94282.38;;;-0.70;78.49
71107;BME280;58763;47.982;11.516;2023-01-26T04:56:23;94279.72;;;-0.70;78.58
71107;BME280;58763;47.982;11.516;2023-01-26T04:58:50;94285.25;;;-0.71;78.79
71107;BME280;58763;47.982;11.516;2023-01-26T05:01:16;94282.19;;;-0.68;78.67
71107;BME280;58763;47.982;11.516;2023-01-26T05:03:42;94287.03;;;-0.65;77.31
71107;BME280;58763;47.982;11.516;2023-01-26T05:06:07;94285.47;;;-0.73;77.35
71107;BME280;58763;47.982;11.516;2023-01-26T05:08:33;94287.50;;;-0.75;77.91
71107;BME280;58763;47.982;11.516;2023-01-26T05:11:00;94284.84;;;-0.68;77.42
71107;BME280;58763;47.982;11.516;2023-01-26T05:13:26;94289.28;;;-0.62;77.53
71107;BME280;58763;47.982;11.516;2023-01-26T05:15:51;94300.13;;;-0.63;77.58
71107;BME280;58763;47.982;11.516;2023-01-26T05:18:17;94287.72;;;-0.76;77.83
71107;BME280;58763;47.982;11.516;2023-01-26T05:20:42;94284.84;;;-0.68;77.86
71107;BME280;58763;47.982;11.516;2023-01-26T05:23:08;94288.09;;;-0.66;77.15
71107;BME280;58763;47.982;11.516;2023-01-26T05:25:33;94293.44;;;-0.73;77.39
71107;BME280;58763;47.982;11.516;2023-01-26T05:27:59;94290.16;;;-0.75;77.46
71107;BME280;58763;47.982;11.516;2023-01-26T05:30:25;94291.50;;;-0.90;77.85
71107;BME280;58763;47.982;11.516;2023-01-26T05:32:50;94280.03;;;-0.84;77.56
71107;BME280;58763;47.982;11.516;2023-01-26T05:35:16;94280.81;;;-0.77;77.70
71107;BME280;58763;47.982;11.516;2023-01-26T05:37:42;94270.91;;;-0.63;77.62
71107;BME280;58763;47.982;11.516;2023-01-26T05:40:11;94274.59;;;-0.64;77.61
71107;BME280;58763;47.982;11.516;2023-01-26T05:42:38;94278.88;;;-0.63;78.12
71107;BME280;58763;47.982;11.516;2023-01-26T05:45:04;94275.34;;;-0.57;77.67
71107;BME280;58763;47.982;11.516;2023-01-26T05:47:30;94278.78;;;-0.50;77.70
71107;BME280;58763;47.982;11.516;2023-01-26T05:49:55;94281.00;;;-0.47;77.13
71107;BME280;58763;47.982;11.516;2023-01-26T05:52:21;94286.09;;;-0.46;77.13
71107;BME280;58763;47.982;11.516;2023-01-26T05:54:47;94286.28;;;-0.41;77.04
71107;BME280;58763;47.982;11.516;2023-01-26T05:57:13;94288.09;;;-0.41;77.29
71107;BME280;58763;47.982;11.516;2023-01-26T05:59:41;94288.88;;;-0.34;76.67
71107;BME280;58763;47.982;11.516;2023-01-26T06:02:08;94290.50;;;-0.33;76.50
71107;BME280;58763;47.982;11.516;2023-01-26T06:04:35;94288.09;;;-0.41;76.80
71107;BME280;58763;47.982;11.516;2023-01-26T06:07:01;94293.16;;;-0.33;76.41
71107;BME280;58763;47.982;11.516;2023-01-26T06:09:26;94292.34;;;-0.34;76.17
71107;BME280;58763;47.982;11.516;2023-01-26T06:11:52;94293.59;;;-0.36;76.22
71107;BME280;58763;47.982;11.516;2023-01-26T06:14:21;94297.91;;;-0.42;76.00
71107;BME280;58763;47.982;11.516;2023-01-26T06:16:47;94293.41;;;-0.41;76.87
71107;BME280;58763;47.982;11.516;2023-01-26T06:19:12;94301.38;;;-0.41;76.59
71107;BME280;58763;47.982;11.516;2023-01-26T06:21:38;94295.97;;;-0.53;77.05
71107;BME280;58763;47.982;11.516;2023-01-26T06:24:04;94300.91;;;-0.56;77.36
71107;BME280;58763;47.982;11.516;2023-01-26T06:26:29;94294.38;;;-0.60;77.59
71107;BME280;58763;47.982;11.516;2023-01-26T06:28:55;94293.72;;;-0.56;77.45
71107;BME280;58763;47.982;11.516;2023-01-26T06:31:21;94290.09;;;-0.61;77.09
71107;BME280;58763;47.982;11.516;2023-01-26T06:33:49;94289.69;;;-0.58;77.50
71107;BME280;58763;47.982;11.516;2023-01-26T06:36:15;94287.16;;;-0.53;77.73
71107;BME280;58763;47.982;11.516;2023-01-26T06:38:46;94282.91;;;-0.54;77.45
71107;BME280;58763;47.982;11.516;2023-01-26T06:41:11;94280.25;;;-0.54;77.68
71107;BME280;58763;47.982;11.516;2023-01-26T06:43:37;94284.25;;;-0.45;77.72
71107;BME280;58763;47.982;11.516;2023-01-26T06:46:03;94280.66;;;-0.57;77.25
71107;BME280;58763;47.982;11.516;2023-01-26T06:48:32;94285.03;;;-0.70;77.54
71107;BME280;58763;47.982;11.516;2023-01-26T06:51:06;94280.16;;;-0.73;77.61
71107;BME280;58763;47.982;11.516;2023-01-26T06:53:54;94282.78;;;-0.66;78.04
71107;BME280;58763;47.982;11.516;2023-01-26T06:56:21;94289.09;;;-0.67;78.22
71107;BME280;58763;47.982;11.516;2023-01-26T06:58:47;94285.38;;;-0.59;77.69
71107;BME280;58763;47.982;11.516;2023-01-26T07:01:21;94285.13;;;-0.51;77.24
71107;BME280;58763;47.982;11.516;2023-01-26T07:03:48;94283.50;;;-0.52;77.53
71107;BME280;58763;47.982;11.516;2023-01-26T07:06:14;94281.59;;;-0.45;77.04
71107;BME280;58763;47.982;11.516;2023-01-26T07:08:40;94290.44;;;-0.51;77.46
71107;BME280;58763;47.982;11.516;2023-01-26T07:11:06;94287.16;;;-0.47;77.28
71107;BME280;58763;47.982;11.516;2023-01-26T07:13:32;94279.06;;;-0.58;77.49
71107;BME280;58763;47.982;11.516;2023-01-26T07:16:09;94278.41;;;-0.54;76.72
71107;BME280;58763;47.982;11.516;2023-01-26T07:18:36;94278.56;;;-0.49;76.43
71107;BME280;58763;47.982;11.516;2023-01-26T07:21:07;94282.72;;;-0.59;77.01
71107;BME280;58763;47.982;11.516;2023-01-26T07:23:34;94283.16;;;-0.62;77.73
71107;BME280;58763;47.982;11.516;2023-01-26T07:25:59;94276.41;;;-0.58;77.94
71107;BME280;58763;47.982;11.516;2023-01-26T07:28:25;94276.13;;;-0.50;77.94
71107;BME280;58763;47.982;11.516;2023-01-26T07:30:51;94271.88;;;-0.58;77.89
71107;BME280;58763;47.982;11.516;2023-01-26T07:33:17;94275.31;;;-0.51;77.70
71107;BME280;58763;47.982;11.516;2023-01-26T07:35:43;94272.66;;;-0.51;77.42
71107;BME280;58763;47.982;11.516;2023-01-26T07:38:09;94267.78;;;-0.54;78.07
71107;BME280;58763;47.982;11.516;2023-01-26T07:40:35;94270.00;;;-0.51;77.68
71107;BME280;58763;47.982;11.516;2023-01-26T07:43:00;94274.06;;;-0.48;77.52
71107;BME280;58763;47.982;11.516;2023-01-26T07:45:26;94274.53;;;-0.58;77.69
71107;BME280;58763;47.982;11.516;2023-01-26T07:47:56;94274.72;;;-0.53;77.88
71107;BME280;58763;47.982;11.516;2023-01-26T07:50:22;94276.13;;;-0.50;77.92
71107;BME280;58763;47.982;11.516;2023-01-26T07:52:50;94275.25;;;-0.44;77.32
71107;BME280;58763;47.982;11.516;2023-01-26T07:55:17;94265.66;;;-0.45;77.71
71107;BME280;58763;47.982;11.516;2023-01-26T07:57:48;94271.81;;;-0.45;77.97
71107;BME280;58763;47.982;11.516;2023-01-26T08:00:15;94268.09;;;-0.44;77.39
71107;BME280;58763;47.982;11.516;2023-01-26T08:02:41;94266.66;;;-0.40;77.39
71107;BME280;58763;47.982;11.516;2023-01-26T08:05:08;94259.28;;;-0.38;77.39
71107;BME280;58763;47.982;11.516;2023-01-26T08:07:33;94254.50;;;-0.29;77.32
71107;BME280;58763;47.982;11.516;2023-01-26T08:09:59;94256.81;;;-0.39;77.53
71107;BME280;58763;47.982;11.516;2023-01-26T08:12:25;94264.19;;;-0.41;77.78
71107;BME280;58763;47.982;11.516;2023-01-26T08:14:50;94262.78;;;-0.44;77.77
71107;BME280;58763;47.982;11.516;2023-01-26T08:17:16;94266.00;;;-0.35;77.60
71107;BME280;58763;47.982;11.516;2023-01-26T08:19:43;94254.94;;;-0.32;77.51
71107;BME280;58763;47.982;11.516;2023-01-26T08:22:08;94257.22;;;-0.36;77.51
71107;BME280;58763;47.982;11.516;2023-01-26T08:24:34;94261.38;;;-0.46;78.18
71107;BME280;58763;47.982;11.516;2023-01-26T08:27:00;94257.69;;;-0.45;78.29
71107;BME280;58763;47.982;11.516;2023-01-26T08:29:25;94259.06;;;-0.36;78.27
71107;BME280;58763;47.982;11.516;2023-01-26T08:31:51;94257.59;;;-0.32;78.90
71107;BME280;58763;47.982;11.516;2023-01-26T08:34:16;94256.16;;;-0.35;78.32
71107;BME280;58763;47.982;11.516;2023-01-26T08:36:42;94246.38;;;-0.34;78.75
71107;BME280;58763;47.982;11.516;2023-01-26T08:39:07;94252.28;;;-0.32;78.83
71107;BME280;58763;47.982;11.516;2023-01-26T08:41:33;94251.91;;;-0.36;78.97
71107;BME280;58763;47.982;11.516;2023-01-26T08:43:59;94240.94;;;-0.21;78.35
71107;BME280;58763;47.982;11.516;2023-01-26T08:46:25;94248.03;;;-0.15;78.42
71107;BME280;58763;47.982;11.516;2023-01-26T08:48:51;94247.22;;;-0.16;78.28
71107;BME280;58763;47.982;11.516;2023-01-26T08:51:17;94239.06;;;-0.14;78.03
71107;BME280;58763;47.982;11.516;2023-01-26T08:53:42;94247.53;;;-0.06;78.05
71107;BME280;58763;47.982;11.516;2023-01-26T08:56:10;94244.97;;;-0.12;78.27
71107;BME280;58763;47.982;11.516;2023-01-26T08:58:37;94239.63;;;-0.12;78.52
71107;BME280;58763;47.982;11.516;2023-01-26T09:01:04;94245.88;;;0.00;77.46
71107;BME280;58763;47.982;11.516;2023-01-26T09:03:30;94247.47;;;0.01;77.27
71107;BME280;58763;47.982;11.516;2023-01-26T09:05:58;94248.13;;;-0.04;77.72
71107;BME280;58763;47.982;11.516;2023-01-26T09:08:24;94253.69;;;-0.05;77.89
71107;BME280;58763;47.982;11.516;2023-01-26T09:10:50;94247.91;;;-0.02;77.68
71107;BME280;58763;47.982;11.516;2023-01-26T09:13:15;94242.53;;;0.05;77.60
71107;BME280;58763;47.982;11.516;2023-01-26T09:15:41;94241.56;;;-0.01;77.69
71107;BME280;58763;47.982;11.516;2023-01-26T09:18:08;94247.91;;;-0.02;77.35
71107;BME280;58763;47.982;11.516;2023-01-26T09:20:33;94246.88;;;-0.01;77.04
71107;BME280;58763;47.982;11.516;2023-01-26T09:22:59;94249.16;;;-0.05;77.32
71107;BME280;58763;47.982;11.516;2023-01-26T09:25:24;94249.91;;;0.03;76.70
71107;BME280;58763;47.982;11.516;2023-01-26T09:27:50;94244.00;;;0.00;76.80
71107;BME280;58763;47.982;11.516;2023-01-26T09:30:16;94248.66;;;0.05;77.56
71107;BME280;58763;47.982;11.516;2023-01-26T09:32:42;94251.31;;;0.05;77.11
71107;BME280;58763;47.982;11.516;2023-01-26T09:35:08;94257.22;;;0.07;77.25
71107;BME280;58763;47.982;11.516;2023-01-26T09:37:37;94251.31;;;0.05;77.27
71107;BME280;58763;47.982;11.516;2023-01-26T09:40:04;94252.72;;;0.08;76.74
71107;BME280;58763;47.982;11.516;2023-01-26T09:42:38;94251.13;;;0.07;76.62
71107;BME280;58763;47.982;11.516;2023-01-26T09:45:22;94260.28;;;0.29;75.11
71107;BME280;58763;47.982;11.516;2023-01-26T09:50:29;94257.03;;;0.09;75.96
71107;BME280;58763;47.982;11.516;2023-01-26T09:52:59;94253.63;;;0.02;76.58
71107;BME280;58763;47.982;11.516;2023-01-26T09:55:27;94250.38;;;-0.01;77.13
71107;BME280;58763;47.982;11.516;2023-01-26T09:57:59;94258.84;;;0.08;76.57
71107;BME280;58763;47.982;11.516;2023-01-26T10:00:27;94255.59;;;0.06;76.85
71107;BME280;58763;47.982;11.516;2023-01-26T10:05:54;94252.81;;;0.19;76.55
71107;BME280;58763;47.982;11.516;2023-01-26T10:08:22;94250.16;;;0.19;76.53
71107;BME280;58763;47.982;11.516;2023-01-26T10:11:00;94244.03;;;0.19;76.82
71107;BME280;58763;47.982;11.516;2023-01-26T10:13:28;94243.50;;;0.28;76.06
71107;BME280;58763;47.982;11.516;2023-01-26T10:16:00;94241.22;;;0.32;74.95
71107;BME280;58763;47.982;11.516;2023-01-26T10:18:52;94241.16;;;0.20;75.53
71107;BME280;58763;47.982;11.516;2023-01-26T10:21:22;94248.53;;;0.18;76.05
71107;BME280;58763;47.982;11.516;2023-01-26T10:23:52;94248.81;;;0.28;79.94
71107;BME280;58763;47.982;11.516;2023-01-26T10:26:21;94242.03;;;0.32;79.69
71107;BME280;58763;47.982;11.516;2023-01-26T10:28:49;94236.88;;;0.37;78.78
71107;BME280;58763;47.982;11.516;2023-01-26T10:31:19;94232.06;;;0.46;77.23
71107;BME280;58763;47.982;11.516;2023-01-26T10:33:52;94231.97;;;0.52;75.79
71107;BME280;58763;47.982;11.516;2023-01-26T10:36:19;94226.50;;;0.47;75.52
71107;BME280;58763;47.982;11.516;2023-01-26T10:38:46;94235.31;;;0.48;75.02
71107;BME280;58763;47.982;11.516;2023-01-26T10:46:25;94226.81;;;0.21;74.78
71107;BME280;58763;47.982;11.516;2023-01-26T10:48:55;94217.66;;;-0.01;75.95
71107;BME280;58763;47.982;11.516;2023-01-26T10:51:30;94223.97;;;-0.02;76.54
71107;BME280;58763;47.982;11.516;2023-01-26T10:54:19;94214.56;;;0.20;74.93
71107;BME280;58763;47.982;11.516;2023-01-26T10:59:30;94216.25;;;0.15;75.01
71107;BME280;58763;47.982;11.516;2023-01-26T11:04:26;94213.22;;;0.11;75.22
71107;BME280;58763;47.982;11.516;2023-01-26T11:06:51;94215.44;;;0.14;75.06
71107;BME280;58763;47.982;11.516;2023-01-26T11:11:59;94216.63;;;0.18;75.89
71107;BME280;58763;47.982;11.516;2023-01-26T11:14:26;94213.75;;;0.20;75.42
71107;BME280;58763;47.982;11.516;2023-01-26T11:17:20;94209.53;;;0.12;75.92
71107;BME280;58763;47.982;11.516;2023-01-26T11:28:57;94209.16;;;-0.10;77.04
71107;BME280;58763;47.982;11.516;2023-01-26T11:34:15;94210.69;;;-0.02;76.93
71107;BME280;58763;47.982;11.516;2023-01-26T11:36:58;94212.34;;;-0.01;76.33
71107;BME280;58763;47.982;11.516;2023-01-26T11:39:30;94207.84;;;-0.01;76.29
71107;BME280;58763;47.982;11.516;2023-01-26T11:42:09;94207.91;;;-0.07;77.11
71107;BME280;58763;47.982;11.516;2023-01-26T11:45:00;94201.09;;;-0.21;77.54
71107;BME280;58763;47.982;11.516;2023-01-26T11:50:33;94195.22;;;-0.30;78.56
71107;BME280;58763;47.982;11.516;2023-01-26T11:55:50;94193.91;;;-0.21;78.62
71107;BME280;58763;47.982;11.516;2023-01-26T11:58:29;94190.97;;;-0.13;78.63
71107;BME280;58763;47.982;11.516;2023-01-26T12:00:59;94189.56;;;-0.15;78.39
71107;BME280;58763;47.982;11.516;2023-01-26T12:03:49;94197.56;;;-0.15;80.45
71107;BME280;58763;47.982;11.516;2023-01-26T12:09:03;94184.19;;;-0.09;77.79
71107;BME280;58763;47.982;11.516;2023-01-26T12:11:32;94179.84;;;-0.21;78.61
71107;BME280;58763;47.982;11.516;2023-01-26T12:16:37;94177.19;;;-0.03;78.20
71107;BME280;58763;47.982;11.516;2023-01-26T12:21:48;94176.38;;;-0.04;78.05
71107;BME280;58763;47.982;11.516;2023-01-26T12:24:35;94171.28;;;-0.05;78.02
71107;BME280;58763;47.982;11.516;2023-01-26T12:27:11;94175.56;;;-0.04;78.50
71107;BME280;58763;47.982;11.516;2023-01-26T12:32:13;94172.69;;;-0.03;78.68
71107;BME280;58763;47.982;11.516;2023-01-26T12:34:41;94167.88;;;0.06;78.32
71107;BME280;58763;47.982;11.516;2023-01-26T12:37:22;94173.19;;;0.06;78.23
71107;BME280;58763;47.982;11.516;2023-01-26T12:40:07;94169.06;;;0.10;77.96
71107;BME280;58763;47.982;11.516;2023-01-26T12:45:09;94169.97;;;0.04;77.50
71107;BME280;58763;47.982;11.516;2023-01-26T12:47:45;94165.81;;;-0.10;77.48
71107;BME280;58763;47.982;11.516;2023-01-26T12:50:33;94170.97;;;0.03;77.53
71107;BME280;58763;47.982;11.516;2023-01-26T12:53:17;94173.34;;;-0.07;77.35
71107;BME280;58763;47.982;11.516;2023-01-26T12:55:48;94165.81;;;-0.10;77.29
71107;BME280;58763;47.982;11.516;2023-01-26T13:01:01;94161.63;;;0.19;75.33
71107;BME280;58763;47.982;11.516;2023-01-26T13:03:31;94162.81;;;0.05;75.47
71107;BME280;58763;47.982;11.516;2023-01-26T13:10:55;94172.22;;;0.00;75.56
71107;BME280;58763;47.982;11.516;2023-01-26T13:13:51;94171.50;;;-0.07;75.13
71107;BME280;58763;47.982;11.516;2023-01-26T13:16:37;94159.31;;;-0.14;76.05
71107;BME280;58763;47.982;11.516;2023-01-26T13:19:03;94161.16;;;-0.15;76.89
71107;BME280;58763;47.982;11.516;2023-01-26T13:26:52;94158.66;;;0.09;76.20
71107;BME280;58763;47.982;11.516;2023-01-26T13:31:53;94154.94;;;0.10;74.98
71107;BME280;58763;47.982;11.516;2023-01-26T13:34:36;94157.34;;;-0.01;74.32
71107;BME280;58763;47.982;11.516;2023-01-26T13:39:45;94154.13;;;-0.09;74.80
71107;BME280;58763;47.982;11.516;2023-01-26T13:42:18;94153.94;;;-0.08;74.90
71107;BME280;58763;47.982;11.516;2023-01-26T13:44:51;94150.22;;;-0.07;75.02
71107;BME280;58763;47.982;11.516;2023-01-26T13:47:25;94154.78;;;-0.14;75.61
71107;BME280;58763;47.982;11.516;2023-01-26T13:49:53;94163.91;;;-0.03;74.33
71107;BME280;58763;47.982;11.516;2023-01-26T13:52:24;94157.34;;;-0.01;74.21
71107;BME280;58763;47.982;11.516;2023-01-26T13:54:52;94154.22;;;0.03;74.58
71107;BME280;58763;47.982;11.516;2023-01-26T13:57:21;94156.28;;;0.00;74.54
71107;BME280;58763;47.982;11.516;2023-01-26T13:59:58;94161.75;;;0.06;74.31
71107;BME280;58763;47.982;11.516;2023-01-26T14:02:27;94156.66;;;0.04;74.29
71107;BME280;58763;47.982;11.516;2023-01-26T14:04:55;94157.47;;;0.05;74.67
71107;BME280;58763;47.982;11.516;2023-01-26T14:07:37;94150.88;;;0.07;75.04
71107;BME280;58763;47.982;11.516;2023-01-26T14:10:05;94153.69;;;0.12;74.89
71107;BME280;58763;47.982;11.516;2023-01-26T14:12:40;94158.13;;;0.18;75.05
71107;BME280;58763;47.982;11.516;2023-01-26T14:15:20;94164.72;;;0.16;75.28
71107;BME280;58763;47.982;11.516;2023-01-26T14:17:55;94166.31;;;0.17;75.56